createdAt,value
2023-11-17T00:00:06.848Z,97833.23
2023-11-17T00:02:34.636Z,97832.13
2023-11-17T00:05:02.277Z,97827.92
2023-11-17T00:07:30.045Z,97823.36
2023-11-17T00:09:58.016Z,97822.78
2023-11-17T00:12:25.676Z,97821.52
2023-11-17T00:14:53.257Z,97824.11
2023-11-17T00:17:20.791Z,97823.00
2023-11-17T00:19:48.761Z,97822.60
2023-11-17T00:22:16.357Z,97826.13
2023-11-17T00:24:44.044Z,97823.58
2023-11-17T00:27:11.619Z,97824.48
2023-11-17T00:29:39.117Z,97827.88
2023-11-17T00:32:07.248Z,97824.61
2023-11-17T00:34:34.878Z,97821.85
2023-11-17T00:37:04.375Z,97817.79
2023-11-17T00:39:32.753Z,97816.17
2023-11-17T00:42:00.297Z,97814.06
2023-11-17T00:44:28.149Z,97814.27
2023-11-17T00:46:56.464Z,97815.80
2023-11-17T00:49:24.144Z,97814.08
2023-11-17T00:51:52.284Z,97807.46
2023-11-17T00:54:20.096Z,97802.90
2023-11-17T00:56:48.028Z,97798.11
2023-11-17T00:59:15.547Z,97797.31
2023-11-17T01:01:43.139Z,97791.08
2023-11-17T01:04:10.788Z,97791.53
2023-11-17T01:06:38.336Z,97790.29
2023-11-17T01:09:05.872Z,97790.27
2023-11-17T01:11:33.394Z,97786.98
2023-11-17T01:14:01.005Z,97783.16
2023-11-17T01:16:28.610Z,97777.35
2023-11-17T01:18:56.164Z,97781.30
2023-11-17T01:21:23.714Z,97778.86
2023-11-17T01:23:51.254Z,97776.08
2023-11-17T01:26:18.799Z,97772.56
2023-11-17T01:28:46.332Z,97768.95
2023-11-17T01:31:14.237Z,97764.98
2023-11-17T01:33:41.785Z,97764.92
2023-11-17T01:36:09.297Z,97765.21
2023-11-17T01:38:46.500Z,97764.34
2023-11-17T01:41:18.396Z,97753.77
2023-11-17T01:43:46.020Z,97752.90
2023-11-17T01:46:13.755Z,97749.90
2023-11-17T01:48:41.325Z,97744.20
2023-11-17T01:51:08.981Z,97747.33
2023-11-17T01:53:36.566Z,97744.00
2023-11-17T01:56:04.165Z,97739.04
2023-11-17T01:58:31.828Z,97739.05
2023-11-17T02:00:59.368Z,97736.98
2023-11-17T02:03:26.981Z,97740.48
2023-11-17T02:05:54.951Z,97733.80
2023-11-17T02:08:22.884Z,97732.20
2023-11-17T02:10:50.404Z,97730.64
2023-11-17T02:13:17.935Z,97733.07
2023-11-17T02:15:45.507Z,97727.07
2023-11-17T02:18:13.069Z,97722.36
2023-11-17T02:20:40.602Z,97726.00
2023-11-17T02:23:08.113Z,97715.86
2023-11-17T02:25:35.626Z,97717.23
2023-11-17T02:28:03.281Z,97718.09
2023-11-17T02:30:30.843Z,97715.02
2023-11-17T02:32:58.545Z,97714.98
2023-11-17T02:35:26.722Z,97715.76
2023-11-17T02:37:54.566Z,97723.12
2023-11-17T02:40:22.153Z,97721.10
2023-11-17T02:42:49.767Z,97716.67
2023-11-17T02:45:17.395Z,97711.90
2023-11-17T02:47:44.962Z,97711.48
2023-11-17T02:50:12.515Z,97703.77
2023-11-17T02:52:40.188Z,97704.94
2023-11-17T02:55:07.807Z,97709.52
2023-11-17T02:57:35.718Z,97706.86
2023-11-17T03:00:03.691Z,97707.06
2023-11-17T03:02:31.352Z,97707.22
2023-11-17T03:04:58.883Z,97707.67
2023-11-17T03:07:26.559Z,97700.21
2023-11-17T03:09:54.285Z,97703.77
2023-11-17T03:12:21.845Z,97704.66
2023-11-17T03:14:49.741Z,97704.00
2023-11-17T03:17:17.280Z,97706.54
2023-11-17T03:19:44.859Z,97706.27
2023-11-17T03:22:12.502Z,97707.09
2023-11-17T03:24:40.009Z,97711.45
2023-11-17T03:27:07.515Z,97715.89
2023-11-17T03:29:35.138Z,97718.23
2023-11-17T03:32:02.866Z,97717.42
2023-11-17T03:34:31.249Z,97725.88
2023-11-17T03:36:59.489Z,97721.61
2023-11-17T03:39:27.002Z,97723.02
2023-11-17T03:41:55.027Z,97722.83
2023-11-17T03:44:22.567Z,97723.41
2023-11-17T03:46:50.244Z,97721.30
2023-11-17T03:49:18.051Z,97721.27
2023-11-17T03:51:45.578Z,97714.25
2023-11-17T03:54:13.087Z,97711.08
2023-11-17T03:56:40.705Z,97717.02
2023-11-17T03:59:08.278Z,97715.93
2023-11-17T04:01:36.032Z,97718.20
2023-11-17T04:04:03.704Z,97716.17
2023-11-17T04:06:31.295Z,97713.17
2023-11-17T04:08:58.851Z,97710.64
2023-11-17T04:11:26.538Z,97717.08
2023-11-17T04:13:54.061Z,97714.86
2023-11-17T04:16:21.720Z,97716.63
2023-11-17T04:18:49.353Z,97713.27
2023-11-17T04:21:16.910Z,97709.20
2023-11-17T04:23:44.406Z,97706.80
2023-11-17T04:26:11.985Z,97710.42
2023-11-17T04:28:39.509Z,97707.14
2023-11-17T04:31:07.013Z,97709.90
2023-11-17T04:33:34.645Z,97710.06
2023-11-17T04:36:02.175Z,97708.10
2023-11-17T04:38:29.685Z,97708.50
2023-11-17T04:40:57.320Z,97710.88
2023-11-17T04:43:24.858Z,97711.55
2023-11-17T04:45:52.574Z,97713.73
2023-11-17T04:48:20.546Z,97710.64
2023-11-17T04:50:48.042Z,97710.94
2023-11-17T04:53:15.599Z,97710.05
2023-11-17T04:55:43.397Z,97709.44
2023-11-17T04:58:10.948Z,97706.16
2023-11-17T05:00:38.530Z,97708.02
2023-11-17T05:03:06.192Z,97709.95
2023-11-17T05:05:33.786Z,97713.33
2023-11-17T05:08:01.322Z,97712.38
2023-11-17T05:10:28.898Z,97715.42
2023-11-17T05:12:56.456Z,97716.20
2023-11-17T05:15:24.053Z,97714.96
2023-11-17T05:17:51.895Z,97715.18
2023-11-17T05:20:19.482Z,97715.01
2023-11-17T05:22:47.130Z,97715.55
2023-11-17T05:25:14.771Z,97718.09
2023-11-17T05:27:42.453Z,97716.63
2023-11-17T05:30:10.124Z,97723.34
2023-11-17T05:32:37.721Z,97728.66
2023-11-17T05:35:05.294Z,97730.40
2023-11-17T05:37:32.964Z,97734.00
2023-11-17T05:40:00.600Z,97739.77
2023-11-17T05:42:28.317Z,97740.96
2023-11-17T05:44:55.893Z,97740.77
2023-11-17T05:47:23.562Z,97742.77
2023-11-17T05:49:51.120Z,97743.34
2023-11-17T05:52:18.767Z,97743.83
2023-11-17T05:54:46.374Z,97743.18
2023-11-17T05:57:13.879Z,97746.71
2023-11-17T05:59:41.511Z,97752.30
2023-11-17T06:02:09.139Z,97755.36
2023-11-17T06:04:36.753Z,97755.43
2023-11-17T06:07:04.341Z,97755.71
2023-11-17T06:09:31.951Z,97757.77
2023-11-17T06:11:59.485Z,97761.17
2023-11-17T06:14:27.178Z,97759.77
2023-11-17T06:16:55.006Z,97761.95
2023-11-17T06:19:22.713Z,97764.70
2023-11-17T06:21:50.450Z,97764.29
2023-11-17T06:24:18.041Z,97766.29
2023-11-17T06:26:45.602Z,97768.71
2023-11-17T06:29:13.183Z,97766.41
2023-11-17T06:31:41.506Z,97769.05
2023-11-17T06:34:09.180Z,97773.66
2023-11-17T06:36:38.186Z,97776.86
2023-11-17T06:39:11.852Z,97777.22
2023-11-17T06:41:39.327Z,97783.66
2023-11-17T06:44:06.861Z,97783.23
2023-11-17T06:46:34.476Z,97784.32
2023-11-17T06:49:02.131Z,97791.13
2023-11-17T06:51:29.654Z,97796.45
2023-11-17T06:53:57.306Z,97795.48
2023-11-17T06:56:25.046Z,97806.11
2023-11-17T06:58:52.640Z,97808.81
2023-11-17T07:01:21.330Z,97812.83
2023-11-17T07:03:49.916Z,97816.23
2023-11-17T07:06:17.529Z,97821.95
2023-11-17T07:08:45.196Z,97824.30
2023-11-17T07:11:12.720Z,97827.15
2023-11-17T07:13:40.350Z,97834.73
2023-11-17T07:16:07.994Z,97835.45
2023-11-17T07:18:35.762Z,97838.85
2023-11-17T07:21:03.471Z,97841.64
2023-11-17T07:23:31.057Z,97845.41
2023-11-17T07:25:58.626Z,97849.39
2023-11-17T07:28:26.264Z,97855.98
2023-11-17T07:30:53.895Z,97857.62
2023-11-17T07:33:21.525Z,97865.32
2023-11-17T07:35:49.060Z,97867.11
2023-11-17T07:38:16.626Z,97865.36
2023-11-17T07:40:44.427Z,97866.95
2023-11-17T07:43:12.051Z,97868.05
2023-11-17T07:45:39.621Z,97867.73
2023-11-17T07:48:07.196Z,97869.61
2023-11-17T07:50:34.857Z,97871.90
2023-11-17T07:53:02.338Z,97880.75
2023-11-17T07:55:30.199Z,97889.55
2023-11-17T07:57:58.157Z,97892.21
2023-11-17T08:00:25.722Z,97891.48
2023-11-17T08:02:53.473Z,97895.16
2023-11-17T08:05:21.752Z,97897.71
2023-11-17T08:07:49.354Z,97899.21
2023-11-17T08:10:16.965Z,97901.27
2023-11-17T08:12:44.841Z,97903.86
2023-11-17T08:15:12.403Z,97904.95
2023-11-17T08:17:39.964Z,97904.23
2023-11-17T08:20:07.963Z,97907.73
2023-11-17T08:22:35.606Z,97912.67
2023-11-17T08:25:03.355Z,97912.45
2023-11-17T08:27:30.992Z,97914.69
2023-11-17T08:29:58.515Z,97919.66
2023-11-17T08:32:26.091Z,97924.13
2023-11-17T08:34:53.682Z,97926.35
2023-11-17T08:37:21.247Z,97930.46
2023-11-17T08:39:48.748Z,97934.28
2023-11-17T08:42:17.359Z,97933.10
2023-11-17T08:44:45.103Z,97933.19
2023-11-17T08:47:12.695Z,97940.33
2023-11-17T08:49:40.360Z,97945.33
2023-11-17T08:52:07.898Z,97950.47
2023-11-17T08:54:35.670Z,97956.73
2023-11-17T08:57:03.230Z,97957.09
2023-11-17T08:59:30.749Z,97963.70
2023-11-17T09:01:58.425Z,97962.88
2023-11-17T09:04:26.019Z,97970.27
2023-11-17T09:06:53.560Z,97971.05
2023-11-17T09:09:28.551Z,97972.33
2023-11-17T09:11:58.562Z,97977.41
2023-11-17T09:14:28.863Z,97983.44
2023-11-17T09:16:58.992Z,97982.16
2023-11-17T09:19:26.764Z,97978.92
2023-11-17T09:21:54.325Z,97979.39
2023-11-17T09:24:21.942Z,97981.68
2023-11-17T09:26:49.506Z,97982.54
2023-11-17T09:29:17.126Z,97981.55
2023-11-17T09:31:44.953Z,97979.25
2023-11-17T09:34:12.625Z,97980.56
2023-11-17T09:36:40.892Z,97986.42
2023-11-17T09:39:08.534Z,97980.65
2023-11-17T09:41:36.116Z,97984.30
2023-11-17T09:44:03.619Z,97979.61
2023-11-17T09:46:31.121Z,97981.84
2023-11-17T09:48:58.670Z,97977.85
2023-11-17T09:51:26.242Z,97975.65
2023-11-17T09:53:55.816Z,97975.20
2023-11-17T09:56:23.617Z,97977.29
2023-11-17T09:58:51.281Z,97977.69
2023-11-17T10:01:19.093Z,97975.21
2023-11-17T10:03:46.774Z,97972.13
2023-11-17T10:06:14.493Z,97975.25
2023-11-17T10:08:42.020Z,97981.38
2023-11-17T10:11:09.522Z,97985.31
2023-11-17T10:13:37.281Z,97989.27
2023-11-17T10:16:04.904Z,97989.45
2023-11-17T10:18:32.452Z,97986.16
2023-11-17T10:21:00.153Z,97983.55
2023-11-17T10:23:27.966Z,97981.84
2023-11-17T10:25:56.378Z,97986.00
2023-11-17T10:31:18.366Z,97993.39
2023-11-17T10:33:44.691Z,97996.42
2023-11-17T10:36:11.029Z,98001.91
2023-11-17T10:38:37.479Z,97996.41
2023-11-17T10:41:04.109Z,98004.52
2023-11-17T10:43:30.760Z,98003.11
2023-11-17T10:45:56.991Z,98003.94
2023-11-17T10:48:23.229Z,98006.08
2023-11-17T10:50:49.385Z,98010.71
2023-11-17T10:53:15.568Z,98010.14
2023-11-17T10:55:42.392Z,98013.89
2023-11-17T10:58:08.620Z,98016.00
2023-11-17T11:00:34.888Z,98018.99
2023-11-17T11:03:01.236Z,98023.70
2023-11-17T11:05:27.567Z,98024.66
2023-11-17T11:07:53.730Z,98030.40
2023-11-17T11:10:19.898Z,98036.20
2023-11-17T11:12:46.078Z,98040.29
2023-11-17T11:15:12.287Z,98038.47
2023-11-17T11:17:38.515Z,98046.84
2023-11-17T11:20:21.206Z,98045.13
2023-11-17T11:22:49.326Z,98047.34
2023-11-17T11:25:15.790Z,98048.73
2023-11-17T11:27:42.018Z,98051.40
2023-11-17T11:30:08.265Z,98052.56
2023-11-17T11:32:34.487Z,98052.80
2023-11-17T11:35:00.712Z,98050.42
2023-11-17T11:37:27.024Z,98053.63
2023-11-17T11:39:53.972Z,98051.91
2023-11-17T11:42:20.180Z,98052.97
2023-11-17T11:44:46.326Z,98056.55
2023-11-17T11:47:12.532Z,98052.77
2023-11-17T11:49:38.885Z,98058.17
2023-11-17T11:52:05.131Z,98059.04
2023-11-17T11:54:31.436Z,98062.52
2023-11-17T11:56:57.898Z,98066.67
2023-11-17T11:59:24.530Z,98066.67
2023-11-17T12:01:50.667Z,98063.05
2023-11-17T12:04:17.018Z,98064.40
2023-11-17T12:06:47.244Z,98065.38
2023-11-17T12:09:16.420Z,98070.02
2023-11-17T12:11:43.064Z,98076.30
2023-11-17T12:14:09.385Z,98088.58
2023-11-17T12:16:35.728Z,98095.28
2023-11-17T12:19:02.545Z,98106.71
2023-11-17T12:21:28.900Z,98111.52
2023-11-17T12:23:55.090Z,98118.84
2023-11-17T12:26:21.292Z,98120.88
2023-11-17T12:28:47.569Z,98128.29
2023-11-17T12:31:13.788Z,98132.80
2023-11-17T12:33:39.999Z,98141.20
2023-11-17T12:36:06.259Z,98148.59
2023-11-17T12:38:32.456Z,98149.48
2023-11-17T12:40:58.897Z,98150.16
2023-11-17T12:43:25.143Z,98154.65
2023-11-17T12:45:51.322Z,98157.49
2023-11-17T12:48:17.961Z,98162.90
2023-11-17T12:50:44.129Z,98167.23
2023-11-17T12:53:10.331Z,98167.21
2023-11-17T12:55:37.562Z,98175.21
2023-11-17T12:58:03.958Z,98182.48
2023-11-17T13:00:30.150Z,98181.02
2023-11-17T13:02:56.575Z,98183.17
2023-11-17T13:05:24.134Z,98183.05
2023-11-17T13:07:51.852Z,98186.06
2023-11-17T13:10:18.109Z,98192.18
2023-11-17T13:12:44.422Z,98195.52
2023-11-17T13:15:11.139Z,98204.77
2023-11-17T13:17:37.895Z,98198.23
2023-11-17T13:20:04.419Z,98198.91
2023-11-17T13:22:31.592Z,98197.67
2023-11-17T13:24:57.741Z,98201.09
2023-11-17T13:27:23.952Z,98204.05
2023-11-17T13:29:50.137Z,98205.91
2023-11-17T13:32:16.389Z,98209.48
2023-11-17T13:34:42.676Z,98213.92
2023-11-17T13:37:09.377Z,98213.40
2023-11-17T13:39:35.566Z,98215.08
2023-11-17T13:42:01.706Z,98217.52
2023-11-17T13:44:31.456Z,98220.27
2023-11-17T13:46:59.183Z,98219.86
2023-11-17T13:49:25.657Z,98222.52
2023-11-17T13:51:51.863Z,98220.84
2023-11-17T13:54:18.064Z,98219.31
2023-11-17T13:56:44.383Z,98223.13
2023-11-17T13:59:10.649Z,98229.72
2023-11-17T14:01:37.443Z,98235.44
2023-11-17T14:04:04.116Z,98245.62
2023-11-17T14:06:30.447Z,98244.55
2023-11-17T14:08:56.667Z,98248.58
2023-11-17T14:11:22.801Z,98252.75
2023-11-17T14:13:49.030Z,98256.67
2023-11-17T14:16:15.492Z,98260.50
2023-11-17T14:18:41.672Z,98259.45
2023-11-17T14:21:07.907Z,98263.59
2023-11-17T14:23:34.124Z,98270.34
2023-11-17T14:26:00.270Z,98278.55
2023-11-17T14:28:26.478Z,98278.33
2023-11-17T14:30:52.725Z,98284.02
2023-11-17T14:33:19.146Z,98286.35
2023-11-17T14:35:45.332Z,98292.75
2023-11-17T14:38:11.485Z,98301.39
2023-11-17T14:40:37.829Z,98310.38
2023-11-17T14:43:04.061Z,98309.90
2023-11-17T14:45:30.744Z,98318.52
2023-11-17T14:47:57.156Z,98318.71
2023-11-17T14:50:23.489Z,98321.19
2023-11-17T14:52:49.828Z,98317.27
2023-11-17T14:55:16.109Z,98318.83
2023-11-17T14:57:42.473Z,98321.26
2023-11-17T15:00:08.808Z,98323.63
2023-11-17T15:02:35.549Z,98328.63
2023-11-17T15:05:01.676Z,98329.86
2023-11-17T15:07:28.343Z,98337.91
2023-11-17T15:09:54.618Z,98342.45
2023-11-17T15:12:20.898Z,98345.90
2023-11-17T15:14:47.088Z,98351.05
2023-11-17T15:17:13.334Z,98356.69
2023-11-17T15:19:41.025Z,98360.90
2023-11-17T15:22:08.581Z,98360.13
2023-11-17T15:24:34.748Z,98364.26
2023-11-17T15:27:01.059Z,98365.70
2023-11-17T15:29:27.279Z,98365.75
2023-11-17T15:31:54.776Z,98372.40
2023-11-17T15:34:21.364Z,98377.61
2023-11-17T15:36:47.712Z,98379.79
2023-11-17T15:39:13.891Z,98381.10
2023-11-17T15:41:40.065Z,98388.48
2023-11-17T15:44:08.174Z,98394.11
2023-11-17T15:46:34.966Z,98390.09
2023-11-17T15:49:01.206Z,98392.83
2023-11-17T15:51:27.638Z,98394.52
2023-11-17T15:53:54.125Z,98398.34
2023-11-17T15:56:20.293Z,98400.42
2023-11-17T15:58:46.478Z,98402.21
2023-11-17T16:01:12.691Z,98405.69
2023-11-17T16:03:39.017Z,98412.23
2023-11-17T16:06:05.246Z,98414.22
2023-11-17T16:08:31.451Z,98420.23
2023-11-17T16:10:57.625Z,98423.06
2023-11-17T16:13:24.217Z,98425.33
2023-11-17T16:15:50.487Z,98424.92
2023-11-17T16:18:16.918Z,98426.45
2023-11-17T16:20:43.496Z,98435.17
2023-11-17T16:23:09.671Z,98436.02
2023-11-17T16:25:36.350Z,98438.04
2023-11-17T16:28:02.493Z,98439.08
2023-11-17T16:30:28.660Z,98439.74
2023-11-17T16:32:55.296Z,98440.67
2023-11-17T16:35:23.313Z,98450.83
2023-11-17T16:37:49.771Z,98453.66
2023-11-17T16:40:16.060Z,98451.88
2023-11-17T16:42:43.606Z,98460.48
2023-11-17T16:45:11.325Z,98455.30
2023-11-17T16:47:37.531Z,98454.88
2023-11-17T16:50:04.400Z,98453.98
2023-11-17T16:52:30.625Z,98457.14
2023-11-17T16:54:56.943Z,98458.77
2023-11-17T16:57:23.139Z,98456.92
2023-11-17T16:59:49.313Z,98457.02
2023-11-17T17:02:16.129Z,98457.34
2023-11-17T17:04:42.553Z,98459.85
2023-11-17T17:07:08.756Z,98459.80
2023-11-17T17:09:34.984Z,98460.77
2023-11-17T17:12:01.459Z,98462.33
2023-11-17T17:14:28.066Z,98458.41
2023-11-17T17:16:54.528Z,98457.85
2023-11-17T17:19:21.098Z,98467.58
2023-11-17T17:21:47.329Z,98472.52
2023-11-17T17:24:13.895Z,98472.80
2023-11-17T17:26:40.117Z,98477.80
2023-11-17T17:29:06.275Z,98480.53
2023-11-17T17:31:32.516Z,98474.92
2023-11-17T17:33:58.744Z,98476.42
2023-11-17T17:36:24.882Z,98482.48
2023-11-17T17:38:51.288Z,98482.86
2023-11-17T17:41:17.507Z,98479.50
2023-11-17T17:43:44.093Z,98480.23
2023-11-17T17:46:10.317Z,98487.79
2023-11-17T17:48:36.522Z,98489.94
2023-11-17T17:51:03.120Z,98488.98
2023-11-17T17:53:29.623Z,98485.23
2023-11-17T17:55:55.873Z,98492.30
2023-11-17T17:58:22.177Z,98487.55
2023-11-17T18:00:48.444Z,98489.88
2023-11-17T18:03:14.762Z,98493.48
2023-11-17T18:05:41.269Z,98493.98
2023-11-17T18:08:07.502Z,98497.59
2023-11-17T18:10:33.681Z,98497.39
2023-11-17T18:12:59.877Z,98497.00
2023-11-17T18:15:26.077Z,98498.49
2023-11-17T18:17:53.499Z,98495.76
2023-11-17T18:20:20.386Z,98493.60
2023-11-17T18:22:46.594Z,98487.11
2023-11-17T18:25:12.862Z,98489.84
2023-11-17T18:27:39.136Z,98489.95
2023-11-17T18:30:05.310Z,98497.52
2023-11-17T18:32:31.558Z,98499.33
2023-11-17T18:34:57.872Z,98500.88
2023-11-17T18:37:24.063Z,98502.89
2023-11-17T18:39:52.261Z,98506.81
2023-11-17T18:42:19.084Z,98504.92
2023-11-17T18:44:45.397Z,98506.09
2023-11-17T18:47:11.564Z,98508.20
2023-11-17T18:49:37.724Z,98514.98
2023-11-17T18:52:04.552Z,98512.84
2023-11-17T18:54:30.797Z,98518.16
2023-11-17T18:56:57.090Z,98512.50
2023-11-17T18:59:23.315Z,98514.44
2023-11-17T19:01:49.662Z,98518.54
2023-11-17T19:04:15.907Z,98519.23
2023-11-17T19:06:42.128Z,98522.58
2023-11-17T19:09:08.249Z,98525.08
2023-11-17T19:11:34.452Z,98523.98
2023-11-17T19:14:00.726Z,98524.21
2023-11-17T19:16:27.491Z,98524.12
2023-11-17T19:18:53.643Z,98528.29
2023-11-17T19:21:19.884Z,98528.33
2023-11-17T19:23:46.040Z,98529.65
2023-11-17T19:26:12.233Z,98529.98
2023-11-17T19:28:38.829Z,98526.33
2023-11-17T19:31:05.040Z,98523.21
2023-11-17T19:33:31.287Z,98531.36
2023-11-17T19:36:04.378Z,98529.13
2023-11-17T19:38:35.688Z,98526.36
2023-11-17T19:41:01.843Z,98528.55
2023-11-17T19:43:28.031Z,98527.48
2023-11-17T19:45:54.277Z,98528.10
2023-11-17T19:48:20.934Z,98531.05
2023-11-17T19:50:47.095Z,98534.77
2023-11-17T19:53:13.230Z,98537.07
2023-11-17T19:55:39.525Z,98533.78
2023-11-17T19:58:05.718Z,98535.89
2023-11-17T20:00:31.937Z,98532.48
2023-11-17T20:02:58.753Z,98530.07
2023-11-17T20:05:25.307Z,98531.40
2023-11-17T20:07:52.260Z,98531.06
2023-11-17T20:10:18.536Z,98533.11
2023-11-17T20:12:45.253Z,98531.26
2023-11-17T20:15:11.471Z,98533.34
2023-11-17T20:17:48.683Z,98532.39
2023-11-17T20:20:20.880Z,98531.73
2023-11-17T20:22:47.443Z,98534.19
2023-11-17T20:25:13.669Z,98534.88
2023-11-17T20:27:39.913Z,98534.34
2023-11-17T20:30:06.095Z,98536.48
2023-11-17T20:32:34.371Z,98533.27
2023-11-17T20:35:00.843Z,98535.15
2023-11-17T20:37:27.111Z,98539.45
2023-11-17T20:39:53.266Z,98545.20
2023-11-17T20:42:19.458Z,98543.73
2023-11-17T20:44:45.699Z,98545.52
2023-11-17T20:47:11.917Z,98547.66
2023-11-17T20:49:38.239Z,98550.20
2023-11-17T20:52:04.442Z,98552.66
2023-11-17T20:54:30.668Z,98550.47
2023-11-17T20:56:56.791Z,98551.36
2023-11-17T20:59:22.975Z,98554.29
2023-11-17T21:01:49.653Z,98556.54
2023-11-17T21:04:15.924Z,98555.34
2023-11-17T21:06:42.507Z,98558.59
2023-11-17T21:09:08.728Z,98562.73
2023-11-17T21:11:34.982Z,98557.05
2023-11-17T21:14:01.590Z,98561.66
2023-11-17T21:16:28.064Z,98563.63
2023-11-17T21:18:54.215Z,98565.95
2023-11-17T21:21:20.389Z,98570.59
2023-11-17T21:23:46.647Z,98566.91
2023-11-17T21:26:13.105Z,98569.10
2023-11-17T21:28:39.618Z,98574.77
2023-11-17T21:31:05.816Z,98573.46
2023-11-17T21:33:32.021Z,98573.70
2023-11-17T21:35:58.181Z,98574.29
2023-11-17T21:38:24.341Z,98574.48
2023-11-17T21:40:50.496Z,98577.34
2023-11-17T21:43:17.183Z,98582.66
2023-11-17T21:45:43.409Z,98587.64
2023-11-17T21:48:09.996Z,98589.92
2023-11-17T21:50:36.634Z,98597.55
2023-11-17T21:53:03.360Z,98598.28
2023-11-17T21:55:29.734Z,98602.02
2023-11-17T21:57:56.177Z,98603.98
2023-11-17T22:00:22.413Z,98603.58
2023-11-17T22:02:48.849Z,98609.02
2023-11-17T22:05:15.857Z,98612.31
2023-11-17T22:07:42.158Z,98618.27
2023-11-17T22:10:08.385Z,98624.54
2023-11-17T22:12:34.548Z,98626.15
2023-11-17T22:15:00.703Z,98627.05
2023-11-17T22:17:26.978Z,98630.05
2023-11-17T22:19:53.619Z,98630.23
2023-11-17T22:22:19.817Z,98629.23
2023-11-17T22:24:46.091Z,98631.70
2023-11-17T22:27:12.493Z,98633.59
2023-11-17T22:29:38.739Z,98637.51
2023-11-17T22:32:04.996Z,98640.16
2023-11-17T22:34:31.276Z,98637.17
2023-11-17T22:36:57.479Z,98637.10
2023-11-17T22:39:23.635Z,98637.45
2023-11-17T22:41:49.772Z,98641.80
2023-11-17T22:44:16.419Z,98642.92
2023-11-17T22:46:42.769Z,98636.98
2023-11-17T22:49:08.988Z,98646.55
2023-11-17T22:51:35.379Z,98644.72
2023-11-17T22:54:04.119Z,98648.15
2023-11-17T22:56:30.590Z,98650.91
2023-11-17T22:58:56.848Z,98650.86
2023-11-17T23:01:23.076Z,98651.08
2023-11-17T23:03:49.369Z,98652.60
2023-11-17T23:06:15.590Z,98651.86
2023-11-17T23:08:41.746Z,98650.83
2023-11-17T23:11:08.108Z,98647.40
2023-11-17T23:13:34.250Z,98646.23
2023-11-17T23:16:00.494Z,98646.77
2023-11-17T23:18:27.646Z,98651.17
2023-11-17T23:20:53.916Z,98652.22
2023-11-17T23:23:20.099Z,98650.05
2023-11-17T23:25:46.338Z,98647.45
2023-11-17T23:28:12.584Z,98648.72
2023-11-17T23:30:38.780Z,98649.61
2023-11-17T23:33:04.945Z,98647.30
2023-11-17T23:35:31.268Z,98646.05
2023-11-17T23:37:57.470Z,98642.82
2023-11-17T23:40:23.665Z,98644.82
2023-11-17T23:42:50.249Z,98643.83
2023-11-17T23:45:16.500Z,98641.45
2023-11-17T23:47:43.135Z,98648.69
2023-11-17T23:50:09.299Z,98646.05
2023-11-17T23:52:35.470Z,98647.02
2023-11-17T23:55:02.019Z,98648.73
2023-11-17T23:57:28.222Z,98643.39
2023-11-17T23:59:54.446Z,98645.63
